Magog, Canada
Current Conditions -  °F | °C
As of 5:15 AM on Thursday 18 Dec 2014 (Local Time) from KEFK Reporting Station
Light Snow Light Snow  
Wind Chill: 31°   Ceiling: 4000
Heat Index: 31°   Visibility: 4mi
Dew Point: 29°   Wind: 0mph
Humidity: 93%   Direction: NA
Pressure: 29.71"   Gusts: NA
Location:  45.26°N, 72.15°W
Report Text: KEFK 181015Z AUTO 00000KT 4SM -SN SCT022 SCT032 OVC040 00/M01 A2971 RMK AO2 T10051015
Loading
Personal Weather Stations






























Interactive Weather Map New forecast layout! Learn more

10-Day Weather Forecast

Advertisements
Track Severe Weather on mobile